Linden, NJ

1:02 PM EDT on September 02, 2014 (GMT -0400)
(Church St. near Rahway River) | Change Station
CLOSE
Current Station
Personal Weather Station
Location: Rahway, NJ
Elevation: 20 ft
Nearby Weather Stations
Active Advisory: Air Quality Alert

Elev 20 ft 40.61 °N, 74.28 °W | Updated 1 second ago

Clear
Clear
88.4 °F
Feels Like 98 °F
N
0.0
Wind Variable Wind from NNW
Gusts 10.0 mph

Today
High -- | Low -- °F
--% Chance of Precip.
Yesterday
High -- | Low -- °F
Precip. -- in
6:25 AM 7:27 PM
First Quarter, 53% visible
Pressure 29.91 in
Visibility 10.0 miles
Clouds Clear
Heat Index 98 °F
Dew Point 74 °F
Humidity 63%
Rainfall 0.00 in
Snow Depth Not available.
UV 9 out of 12
Pollen 8.40 out of 12
Air Quality Not available.
Flu Activity Not available.
METAR KLDJ 021655Z AUTO 28009KT 10SM CLR 35/21 A2991 RMK AO2 T03460208

More Conditions Fewer Conditions

Pressure 29.91 in
Visibility 10.0 miles
Clouds Clear
Heat Index 98 °F
Dew Point 74 °F
Humidity 63%
Rainfall 0.00 in
Snow Depth Not available.
UV 9 out of 12
Pollen 8.40 out of 12
Air Quality Not available.
Flu Activity Not available.
METAR KLDJ 021655Z AUTO 28009KT 10SM CLR 35/21 A2991 RMK AO2 T03460208

More Conditions Fewer Conditions

10-Day Weather Forecast

Almanac

Astronomy

Sep. 02, 2014 Rise Set
Actual Time 6:25 AM EDT 7:27 PM EDT
Civil Twilight 5:57 AM EDT 7:55 PM EDT
Nautical Twilight 5:23 AM EDT 8:28 PM EDT
Astronomical Twilight 4:48 AM EDT 9:03 PM EDT
Moon 2:08 PM EDT No Moon Set
Length of Visible Light 13h 58m
Length of Day
13h 02m
Tomorrow will be 2m 37s shorter.
First Quarter, 53% of the Moon is Illuminated
Today
First Quarter
Sep 8
Full
Sep 15
Last Quarter
Sep 24
New
Oct 1
First Quarter

Today's Extremes

State Highs State Lows

Community

WunderPhotos

Upload Photos

1,749,720 photos uploaded!

Nearby

Snow Depth

Station Depth Elevation
No new snow has been reported.

Earthquake Activity

City Distance Mag. Time & Date
No recent earthquake activity has been reported nearby.
Minimum magnitude displayed is 2.5.

Coastal Water Temperatures

Place Temperature
Sandy Hook, NJ 78.1 °F
The Battery, NY 75.0 °F
Bergen Point West Reach, NJ 75.0 °F
Kings Point, NY 75.9 °F

Nearby Weather Stations